Blue Mound, Kansas
Current Conditions -  °F | °C
As of 2:52 PM on Friday 31 Oct 2014 (Local Time) from KCNU Reporting Station
Clear Clear  
Wind Chill: 42°   Ceiling: Unl
Heat Index: 48°   Visibility: 10mi
Dew Point: 20°   Wind: 16mph
Humidity: 33%   Direction: 20°NNE
Pressure: 30.42"   Gusts: 22mph
Location:  38.09°N, 95.01°W
Report Text: KCNU 311952Z AUTO 02014G19KT 10SM CLR 09/M07 A3042 RMK AO2 SLP303 T00891067
Loading
Personal Weather Stations






























Interactive Weather Map
Tropical Storm Tracking
New forecast layout! Learn more

10-Day Weather Forecast

Advertisements
Track Severe Weather on mobile